Weather in selectable METAR weather stations Station search

1) Select the Continent / Group:

[Europe]  [Asia]  [Africa]  [North America]  [South America]  
[Central America and Caribbean]  [Oceania]  [Antarctica]  
2) Select the Weather station (City):


METAR = MYNN 190200Z 06008KT 020V080 9999 FEW025 26/18 A3005

STATIONMYNN
NAMENassau Intl, NP, BA
OBSERVED18.10.2021 22:00 (19.10.2021 02:00 UTC), 56 min ago
TEMPERATURE26.0°C ( 79°F)
WINDENE (60 degrees) at 9 MPH (8 knots; 4.1 m/s)
HUMIDITY61%
HEATINDEX27.2°C (81°F)
PRESSURE1017.6 hPa
Click here to search the weather station or to give the station identifier
(four-character ICAO Location Indicator) for weather data.